sensor_id;sensor_type;location;lat;lon;timestamp;temperature;humidity
58447;DHT22;44240;51.840;7.258;2022-11-20T00:00:28;-0.10;99.90
58447;DHT22;44240;51.840;7.258;2022-11-20T00:02:54;-0.10;99.90
58447;DHT22;44240;51.840;7.258;2022-11-20T00:05:19;-0.10;99.90
58447;DHT22;44240;51.840;7.258;2022-11-20T00:07:46;-0.10;99.90
58447;DHT22;44240;51.840;7.258;2022-11-20T00:10:11;-0.20;99.90
58447;DHT22;44240;51.840;7.258;2022-11-20T00:12:37;-0.20;99.90
58447;DHT22;44240;51.840;7.258;2022-11-20T00:15:03;-0.20;99.90
58447;DHT22;44240;51.840;7.258;2022-11-20T00:17:29;-0.20;99.90
58447;DHT22;44240;51.840;7.258;2022-11-20T00:19:55;-0.30;99.90
58447;DHT22;44240;51.840;7.258;2022-11-20T00:22:20;-0.30;99.90
58447;DHT22;44240;51.840;7.258;2022-11-20T00:24:46;-0.30;99.90
58447;DHT22;44240;51.840;7.258;2022-11-20T00:27:11;-0.30;99.90
58447;DHT22;44240;51.840;7.258;2022-11-20T00:29:37;-0.30;99.90
58447;DHT22;44240;51.840;7.258;2022-11-20T00:32:02;-0.30;99.90
58447;DHT22;44240;51.840;7.258;2022-11-20T00:34:28;-0.30;99.90
58447;DHT22;44240;51.840;7.258;2022-11-20T00:36:53;-0.40;99.90
58447;DHT22;44240;51.840;7.258;2022-11-20T00:39:19;-0.40;99.90
58447;DHT22;44240;51.840;7.258;2022-11-20T00:41:44;-0.40;99.90
58447;DHT22;44240;51.840;7.258;2022-11-20T00:44:10;-0.40;99.90
58447;DHT22;44240;51.840;7.258;2022-11-20T00:46:35;-0.40;99.90
58447;DHT22;44240;51.840;7.258;2022-11-20T00:49:01;-0.40;99.90
58447;DHT22;44240;51.840;7.258;2022-11-20T00:51:27;-0.40;99.90
58447;DHT22;44240;51.840;7.258;2022-11-20T00:53:55;-0.40;99.90
58447;DHT22;44240;51.840;7.258;2022-11-20T00:56:21;-0.40;99.90
58447;DHT22;44240;51.840;7.258;2022-11-20T00:58:48;-0.40;99.90
58447;DHT22;44240;51.840;7.258;2022-11-20T01:01:18;-0.50;99.90
58447;DHT22;44240;51.840;7.258;2022-11-20T01:03:46;-0.50;99.90
58447;DHT22;44240;51.840;7.258;2022-11-20T01:06:23;-0.50;99.90
58447;DHT22;44240;51.840;7.258;2022-11-20T01:08:50;-0.50;99.90
58447;DHT22;44240;51.840;7.258;2022-11-20T01:11:22;-0.50;99.90
58447;DHT22;44240;51.840;7.258;2022-11-20T01:13:49;-0.50;99.90
58447;DHT22;44240;51.840;7.258;2022-11-20T01:16:21;-0.50;99.90
58447;DHT22;44240;51.840;7.258;2022-11-20T01:18:48;-0.50;99.90
58447;DHT22;44240;51.840;7.258;2022-11-20T01:23:51;-0.60;99.90
58447;DHT22;44240;51.840;7.258;2022-11-20T01:26:19;-0.60;99.90
58447;DHT22;44240;51.840;7.258;2022-11-20T01:28:45;-0.60;99.90
58447;DHT22;44240;51.840;7.258;2022-11-20T01:33:52;-0.60;99.90
58447;DHT22;44240;51.840;7.258;2022-11-20T01:36:20;-0.60;99.90
58447;DHT22;44240;51.840;7.258;2022-11-20T01:38:46;-0.60;99.90
58447;DHT22;44240;51.840;7.258;2022-11-20T01:41:14;-0.60;99.90
58447;DHT22;44240;51.840;7.258;2022-11-20T01:44:00;-0.70;99.90
58447;DHT22;44240;51.840;7.258;2022-11-20T01:46:26;-0.70;99.90
58447;DHT22;44240;51.840;7.258;2022-11-20T01:51:34;-0.70;99.90
58447;DHT22;44240;51.840;7.258;2022-11-20T01:54:03;-0.70;99.90
58447;DHT22;44240;51.840;7.258;2022-11-20T01:56:33;-0.70;99.90
58447;DHT22;44240;51.840;7.258;2022-11-20T01:59:04;-0.70;99.90
58447;DHT22;44240;51.840;7.258;2022-11-20T02:01:30;-0.70;99.90
58447;DHT22;44240;51.840;7.258;2022-11-20T02:03:56;-0.70;99.90
58447;DHT22;44240;51.840;7.258;2022-11-20T02:06:43;-0.60;99.90
58447;DHT22;44240;51.840;7.258;2022-11-20T02:09:09;-0.70;99.90
58447;DHT22;44240;51.840;7.258;2022-11-20T02:11:35;-0.70;99.90
58447;DHT22;44240;51.840;7.258;2022-11-20T02:14:01;-0.70;99.90
58447;DHT22;44240;51.840;7.258;2022-11-20T02:16:43;-0.70;99.90
58447;DHT22;44240;51.840;7.258;2022-11-20T02:19:24;-0.70;99.90
58447;DHT22;44240;51.840;7.258;2022-11-20T02:22:11;-0.70;99.90
58447;DHT22;44240;51.840;7.258;2022-11-20T02:24:39;-0.80;99.90
58447;DHT22;44240;51.840;7.258;2022-11-20T02:27:09;-0.80;99.90
58447;DHT22;44240;51.840;7.258;2022-11-20T02:29:42;-0.80;99.90
58447;DHT22;44240;51.840;7.258;2022-11-20T02:32:42;-0.90;99.90
58447;DHT22;44240;51.840;7.258;2022-11-20T02:37:58;-0.90;99.90
58447;DHT22;44240;51.840;7.258;2022-11-20T02:40:24;-0.90;99.90
58447;DHT22;44240;51.840;7.258;2022-11-20T02:42:54;-0.90;99.90
58447;DHT22;44240;51.840;7.258;2022-11-20T02:45:19;-0.90;99.90
58447;DHT22;44240;51.840;7.258;2022-11-20T02:47:45;-0.90;99.90
58447;DHT22;44240;51.840;7.258;2022-11-20T02:50:11;-1.00;99.90
58447;DHT22;44240;51.840;7.258;2022-11-20T02:52:37;-1.00;99.90
58447;DHT22;44240;51.840;7.258;2022-11-20T02:55:03;-1.00;99.90
58447;DHT22;44240;51.840;7.258;2022-11-20T02:57:28;-1.00;99.90
58447;DHT22;44240;51.840;7.258;2022-11-20T02:59:54;-1.00;99.90
58447;DHT22;44240;51.840;7.258;2022-11-20T03:02:19;-1.00;99.90
58447;DHT22;44240;51.840;7.258;2022-11-20T03:04:45;-1.00;99.90
58447;DHT22;44240;51.840;7.258;2022-11-20T03:07:11;-1.00;99.90
58447;DHT22;44240;51.840;7.258;2022-11-20T03:09:37;-1.10;99.90
58447;DHT22;44240;51.840;7.258;2022-11-20T03:12:02;-1.10;99.90
58447;DHT22;44240;51.840;7.258;2022-11-20T03:14:28;-1.10;99.90
58447;DHT22;44240;51.840;7.258;2022-11-20T03:16:53;-1.10;99.90
58447;DHT22;44240;51.840;7.258;2022-11-20T03:19:20;-1.10;99.90
58447;DHT22;44240;51.840;7.258;2022-11-20T03:21:45;-1.20;99.90
58447;DHT22;44240;51.840;7.258;2022-11-20T03:24:11;-1.20;99.90
58447;DHT22;44240;51.840;7.258;2022-11-20T03:26:38;-1.20;99.90
58447;DHT22;44240;51.840;7.258;2022-11-20T03:29:04;-1.20;99.90
58447;DHT22;44240;51.840;7.258;2022-11-20T03:31:35;-1.20;99.90
58447;DHT22;44240;51.840;7.258;2022-11-20T03:34:02;-1.20;99.90
58447;DHT22;44240;51.840;7.258;2022-11-20T03:36:28;-1.20;99.90
58447;DHT22;44240;51.840;7.258;2022-11-20T03:38:55;-1.20;99.90
58447;DHT22;44240;51.840;7.258;2022-11-20T03:41:27;-1.20;99.90
58447;DHT22;44240;51.840;7.258;2022-11-20T03:43:54;-1.20;99.90
58447;DHT22;44240;51.840;7.258;2022-11-20T03:46:21;-1.20;99.90
58447;DHT22;44240;51.840;7.258;2022-11-20T03:48:47;-1.20;99.90
58447;DHT22;44240;51.840;7.258;2022-11-20T03:51:20;-1.20;99.90
58447;DHT22;44240;51.840;7.258;2022-11-20T03:53:47;-1.30;99.90
58447;DHT22;44240;51.840;7.258;2022-11-20T03:56:15;-1.30;99.90
58447;DHT22;44240;51.840;7.258;2022-11-20T03:58:42;-1.30;99.90
58447;DHT22;44240;51.840;7.258;2022-11-20T04:01:10;-1.30;99.90
58447;DHT22;44240;51.840;7.258;2022-11-20T04:03:37;-1.30;99.90
58447;DHT22;44240;51.840;7.258;2022-11-20T04:06:12;-1.30;99.90
58447;DHT22;44240;51.840;7.258;2022-11-20T04:08:38;-1.30;99.90
58447;DHT22;44240;51.840;7.258;2022-11-20T04:11:11;-1.40;99.90
58447;DHT22;44240;51.840;7.258;2022-11-20T04:13:37;-1.40;99.90
58447;DHT22;44240;51.840;7.258;2022-11-20T04:16:04;-1.50;99.90
58447;DHT22;44240;51.840;7.258;2022-11-20T04:18:30;-1.40;99.90
58447;DHT22;44240;51.840;7.258;2022-11-20T04:20:59;-1.50;99.90
58447;DHT22;44240;51.840;7.258;2022-11-20T04:23:26;-1.50;99.90
58447;DHT22;44240;51.840;7.258;2022-11-20T04:25:52;-1.50;99.90
58447;DHT22;44240;51.840;7.258;2022-11-20T04:28:18;-1.50;99.90
58447;DHT22;44240;51.840;7.258;2022-11-20T04:30:43;-1.50;99.90
58447;DHT22;44240;51.840;7.258;2022-11-20T04:33:09;-1.50;99.90
58447;DHT22;44240;51.840;7.258;2022-11-20T04:35:35;-1.50;99.90
58447;DHT22;44240;51.840;7.258;2022-11-20T04:38:01;-1.50;99.90
58447;DHT22;44240;51.840;7.258;2022-11-20T04:40:30;-1.50;99.90
58447;DHT22;44240;51.840;7.258;2022-11-20T04:42:56;-1.60;99.90
58447;DHT22;44240;51.840;7.258;2022-11-20T04:45:23;-1.60;99.90
58447;DHT22;44240;51.840;7.258;2022-11-20T04:47:49;-1.60;99.90
58447;DHT22;44240;51.840;7.258;2022-11-20T04:50:14;-1.60;99.90
58447;DHT22;44240;51.840;7.258;2022-11-20T04:52:40;-1.60;99.90
58447;DHT22;44240;51.840;7.258;2022-11-20T04:55:06;-1.60;99.90
58447;DHT22;44240;51.840;7.258;2022-11-20T04:57:32;-1.60;99.90
58447;DHT22;44240;51.840;7.258;2022-11-20T04:59:57;-1.60;99.90
58447;DHT22;44240;51.840;7.258;2022-11-20T05:02:23;-1.60;99.90
58447;DHT22;44240;51.840;7.258;2022-11-20T05:04:48;-1.60;99.90
58447;DHT22;44240;51.840;7.258;2022-11-20T05:07:14;-1.60;99.90
58447;DHT22;44240;51.840;7.258;2022-11-20T05:09:39;-1.60;99.90
58447;DHT22;44240;51.840;7.258;2022-11-20T05:12:07;-1.60;99.90
58447;DHT22;44240;51.840;7.258;2022-11-20T05:14:33;-1.70;99.90
58447;DHT22;44240;51.840;7.258;2022-11-20T05:16:58;-1.70;99.90
58447;DHT22;44240;51.840;7.258;2022-11-20T05:19:24;-1.70;99.90
58447;DHT22;44240;51.840;7.258;2022-11-20T05:21:49;-1.70;99.90
58447;DHT22;44240;51.840;7.258;2022-11-20T05:24:15;-1.70;99.90
58447;DHT22;44240;51.840;7.258;2022-11-20T05:26:40;-1.70;99.90
58447;DHT22;44240;51.840;7.258;2022-11-20T05:29:06;-1.70;99.90
58447;DHT22;44240;51.840;7.258;2022-11-20T05:31:31;-1.80;99.90
58447;DHT22;44240;51.840;7.258;2022-11-20T05:33:57;-1.80;99.90
58447;DHT22;44240;51.840;7.258;2022-11-20T05:36:23;-1.80;99.90
58447;DHT22;44240;51.840;7.258;2022-11-20T05:38:49;-1.80;99.90
58447;DHT22;44240;51.840;7.258;2022-11-20T05:41:17;-1.80;99.90
58447;DHT22;44240;51.840;7.258;2022-11-20T05:43:44;-1.80;99.90
58447;DHT22;44240;51.840;7.258;2022-11-20T05:46:12;-1.80;99.90
58447;DHT22;44240;51.840;7.258;2022-11-20T05:48:39;-1.80;99.90
58447;DHT22;44240;51.840;7.258;2022-11-20T05:51:07;-1.80;99.90
58447;DHT22;44240;51.840;7.258;2022-11-20T05:53:34;-1.80;99.90
58447;DHT22;44240;51.840;7.258;2022-11-20T05:56:01;-1.80;99.90
58447;DHT22;44240;51.840;7.258;2022-11-20T05:58:27;-1.80;99.90
58447;DHT22;44240;51.840;7.258;2022-11-20T06:00:53;-1.80;99.90
58447;DHT22;44240;51.840;7.258;2022-11-20T06:03:18;-1.80;99.90
58447;DHT22;44240;51.840;7.258;2022-11-20T06:05:44;-1.90;99.90
58447;DHT22;44240;51.840;7.258;2022-11-20T06:08:09;-1.80;99.90
58447;DHT22;44240;51.840;7.258;2022-11-20T06:10:35;-1.80;99.90
58447;DHT22;44240;51.840;7.258;2022-11-20T06:13:00;-1.90;99.90
58447;DHT22;44240;51.840;7.258;2022-11-20T06:15:26;-1.90;99.90
58447;DHT22;44240;51.840;7.258;2022-11-20T06:17:55;-1.90;99.90
58447;DHT22;44240;51.840;7.258;2022-11-20T06:20:21;-1.90;99.90
58447;DHT22;44240;51.840;7.258;2022-11-20T06:22:47;-1.90;99.90
58447;DHT22;44240;51.840;7.258;2022-11-20T06:25:13;-1.90;99.90
58447;DHT22;44240;51.840;7.258;2022-11-20T06:27:38;-1.90;99.90
58447;DHT22;44240;51.840;7.258;2022-11-20T06:30:05;-1.90;99.90
58447;DHT22;44240;51.840;7.258;2022-11-20T06:32:30;-1.90;99.90
58447;DHT22;44240;51.840;7.258;2022-11-20T06:34:56;-1.90;99.90
58447;DHT22;44240;51.840;7.258;2022-11-20T06:37:21;-1.90;99.90
58447;DHT22;44240;51.840;7.258;2022-11-20T06:39:47;-1.90;99.90
58447;DHT22;44240;51.840;7.258;2022-11-20T06:42:12;-1.90;99.90
58447;DHT22;44240;51.840;7.258;2022-11-20T06:44:38;-1.90;99.90
58447;DHT22;44240;51.840;7.258;2022-11-20T06:47:03;-1.90;99.90
58447;DHT22;44240;51.840;7.258;2022-11-20T06:49:29;-1.90;99.90
58447;DHT22;44240;51.840;7.258;2022-11-20T06:51:54;-2.00;99.90
58447;DHT22;44240;51.840;7.258;2022-11-20T06:54:20;-2.00;99.90
58447;DHT22;44240;51.840;7.258;2022-11-20T06:56:48;-2.00;99.90
58447;DHT22;44240;51.840;7.258;2022-11-20T06:59:14;-2.00;99.90
58447;DHT22;44240;51.840;7.258;2022-11-20T07:01:40;-2.00;99.90
58447;DHT22;44240;51.840;7.258;2022-11-20T07:04:05;-2.00;99.90
58447;DHT22;44240;51.840;7.258;2022-11-20T07:06:31;-2.00;99.90
58447;DHT22;44240;51.840;7.258;2022-11-20T07:08:57;-2.00;99.90
58447;DHT22;44240;51.840;7.258;2022-11-20T07:11:22;-2.00;99.90
58447;DHT22;44240;51.840;7.258;2022-11-20T07:13:49;-2.00;99.90
58447;DHT22;44240;51.840;7.258;2022-11-20T07:16:15;-2.00;99.90
58447;DHT22;44240;51.840;7.258;2022-11-20T07:18:40;-2.00;99.90
58447;DHT22;44240;51.840;7.258;2022-11-20T07:21:08;-2.00;99.90
58447;DHT22;44240;51.840;7.258;2022-11-20T07:23:34;-2.00;99.90
58447;DHT22;44240;51.840;7.258;2022-11-20T07:26:08;-2.00;99.90
58447;DHT22;44240;51.840;7.258;2022-11-20T07:28:34;-2.00;99.90
58447;DHT22;44240;51.840;7.258;2022-11-20T07:31:00;-2.00;99.90
58447;DHT22;44240;51.840;7.258;2022-11-20T07:33:25;-2.00;99.90
58447;DHT22;44240;51.840;7.258;2022-11-20T07:35:51;-2.00;99.90
58447;DHT22;44240;51.840;7.258;2022-11-20T07:38:17;-2.00;99.90
58447;DHT22;44240;51.840;7.258;2022-11-20T07:44:04;-1.90;99.90
58447;DHT22;44240;51.840;7.258;2022-11-20T07:46:30;-1.90;99.90
58447;DHT22;44240;51.840;7.258;2022-11-20T07:48:55;-1.90;99.90
58447;DHT22;44240;51.840;7.258;2022-11-20T07:51:21;-1.90;99.90
58447;DHT22;44240;51.840;7.258;2022-11-20T07:53:47;-1.90;99.90
58447;DHT22;44240;51.840;7.258;2022-11-20T07:56:12;-1.90;99.90
58447;DHT22;44240;51.840;7.258;2022-11-20T07:58:39;-1.80;99.90
58447;DHT22;44240;51.840;7.258;2022-11-20T08:01:06;-1.80;99.90
58447;DHT22;44240;51.840;7.258;2022-11-20T08:03:32;-1.80;99.90
58447;DHT22;44240;51.840;7.258;2022-11-20T08:06:01;-1.80;99.90
58447;DHT22;44240;51.840;7.258;2022-11-20T08:08:27;-1.80;99.90
58447;DHT22;44240;51.840;7.258;2022-11-20T08:10:53;-1.80;99.90
58447;DHT22;44240;51.840;7.258;2022-11-20T08:13:39;-1.70;99.90
58447;DHT22;44240;51.840;7.258;2022-11-20T08:16:23;-1.70;99.90
58447;DHT22;44240;51.840;7.258;2022-11-20T08:18:48;-1.60;99.90
58447;DHT22;44240;51.840;7.258;2022-11-20T08:21:14;-1.60;99.90
58447;DHT22;44240;51.840;7.258;2022-11-20T08:23:40;-1.50;99.90
58447;DHT22;44240;51.840;7.258;2022-11-20T08:26:05;-1.50;99.90
58447;DHT22;44240;51.840;7.258;2022-11-20T08:28:31;-1.50;99.90
58447;DHT22;44240;51.840;7.258;2022-11-20T08:31:01;-1.40;99.90
58447;DHT22;44240;51.840;7.258;2022-11-20T08:33:27;-1.40;99.90
58447;DHT22;44240;51.840;7.258;2022-11-20T08:35:52;-1.30;99.90
58447;DHT22;44240;51.840;7.258;2022-11-20T08:38:18;-1.30;99.90
58447;DHT22;44240;51.840;7.258;2022-11-20T08:40:43;-1.30;99.90
58447;DHT22;44240;51.840;7.258;2022-11-20T08:43:31;-1.20;99.90
58447;DHT22;44240;51.840;7.258;2022-11-20T08:45:57;-1.20;99.90
58447;DHT22;44240;51.840;7.258;2022-11-20T08:48:23;-1.20;99.90
58447;DHT22;44240;51.840;7.258;2022-11-20T08:50:48;-1.10;99.90
58447;DHT22;44240;51.840;7.258;2022-11-20T08:53:14;-1.10;99.90
58447;DHT22;44240;51.840;7.258;2022-11-20T08:55:39;-1.10;99.90
58447;DHT22;44240;51.840;7.258;2022-11-20T08:58:05;-1.00;99.90
58447;DHT22;44240;51.840;7.258;2022-11-20T09:00:33;-1.00;99.90
58447;DHT22;44240;51.840;7.258;2022-11-20T09:02:58;-1.00;99.90
58447;DHT22;44240;51.840;7.258;2022-11-20T09:05:26;-0.90;99.90
58447;DHT22;44240;51.840;7.258;2022-11-20T09:07:51;-0.90;99.90
58447;DHT22;44240;51.840;7.258;2022-11-20T09:10:17;-0.90;99.90
58447;DHT22;44240;51.840;7.258;2022-11-20T09:12:42;-0.80;99.90
58447;DHT22;44240;51.840;7.258;2022-11-20T09:15:08;-0.70;99.90
58447;DHT22;44240;51.840;7.258;2022-11-20T09:17:34;-0.70;99.90
58447;DHT22;44240;51.840;7.258;2022-11-20T09:19:59;-0.60;99.90
58447;DHT22;44240;51.840;7.258;2022-11-20T09:22:25;-0.60;99.90
58447;DHT22;44240;51.840;7.258;2022-11-20T09:24:50;-0.50;99.90
58447;DHT22;44240;51.840;7.258;2022-11-20T09:27:16;-0.50;99.90
58447;DHT22;44240;51.840;7.258;2022-11-20T09:29:46;-0.40;99.90
58447;DHT22;44240;51.840;7.258;2022-11-20T09:32:12;-0.40;99.90
58447;DHT22;44240;51.840;7.258;2022-11-20T09:34:37;-0.30;99.90
58447;DHT22;44240;51.840;7.258;2022-11-20T09:37:03;-0.20;99.90
58447;DHT22;44240;51.840;7.258;2022-11-20T09:39:29;-0.20;99.90
58447;DHT22;44240;51.840;7.258;2022-11-20T09:48:03;0.00;99.90
58447;DHT22;44240;51.840;7.258;2022-11-20T09:50:55;0.00;99.90
58447;DHT22;44240;51.840;7.258;2022-11-20T09:53:41;0.10;99.90
58447;DHT22;44240;51.840;7.258;2022-11-20T09:56:11;0.20;99.90
58447;DHT22;44240;51.840;7.258;2022-11-20T09:58:43;0.20;99.90
58447;DHT22;44240;51.840;7.258;2022-11-20T10:01:21;0.30;99.90
58447;DHT22;44240;51.840;7.258;2022-11-20T10:07:00;0.40;99.90
58447;DHT22;44240;51.840;7.258;2022-11-20T10:09:37;0.50;99.90
58447;DHT22;44240;51.840;7.258;2022-11-20T10:15:22;0.60;99.90
58447;DHT22;44240;51.840;7.258;2022-11-20T10:23:43;0.80;99.90
58447;DHT22;44240;51.840;7.258;2022-11-20T10:31:40;1.00;99.90
58447;DHT22;44240;51.840;7.258;2022-11-20T10:36:45;1.10;99.90
58447;DHT22;44240;51.840;7.258;2022-11-20T10:39:33;1.10;99.90
58447;DHT22;44240;51.840;7.258;2022-11-20T10:42:00;1.20;99.90
58447;DHT22;44240;51.840;7.258;2022-11-20T10:44:28;1.20;99.90
58447;DHT22;44240;51.840;7.258;2022-11-20T10:47:15;1.30;99.90
58447;DHT22;44240;51.840;7.258;2022-11-20T10:49:44;1.30;99.90
58447;DHT22;44240;51.840;7.258;2022-11-20T10:57:45;1.50;99.90
58447;DHT22;44240;51.840;7.258;2022-11-20T11:00:13;1.60;99.90
58447;DHT22;44240;51.840;7.258;2022-11-20T11:02:59;1.70;99.90
58447;DHT22;44240;51.840;7.258;2022-11-20T11:08:14;1.80;99.90
58447;DHT22;44240;51.840;7.258;2022-11-20T11:10:53;1.90;99.90
58447;DHT22;44240;51.840;7.258;2022-11-20T11:13:29;2.00;99.90
58447;DHT22;44240;51.840;7.258;2022-11-20T11:15:56;2.00;99.90
58447;DHT22;44240;51.840;7.258;2022-11-20T11:18:27;2.10;99.90
58447;DHT22;44240;51.840;7.258;2022-11-20T11:20:54;2.20;99.90
58447;DHT22;44240;51.840;7.258;2022-11-20T11:23:40;2.20;99.90
58447;DHT22;44240;51.840;7.258;2022-11-20T11:26:21;2.30;99.90
58447;DHT22;44240;51.840;7.258;2022-11-20T11:29:02;2.40;99.90
58447;DHT22;44240;51.840;7.258;2022-11-20T11:31:32;2.40;99.90
58447;DHT22;44240;51.840;7.258;2022-11-20T11:34:12;2.50;99.90
58447;DHT22;44240;51.840;7.258;2022-11-20T11:36:38;2.60;99.90
58447;DHT22;44240;51.840;7.258;2022-11-20T11:39:06;2.70;99.90
58447;DHT22;44240;51.840;7.258;2022-11-20T11:41:36;2.70;99.90
58447;DHT22;44240;51.840;7.258;2022-11-20T11:44:20;2.80;99.90
58447;DHT22;44240;51.840;7.258;2022-11-20T11:47:20;2.90;99.90
58447;DHT22;44240;51.840;7.258;2022-11-20T11:49:47;3.00;99.90
58447;DHT22;44240;51.840;7.258;2022-11-20T11:52:16;3.10;99.90
58447;DHT22;44240;51.840;7.258;2022-11-20T11:55:01;3.20;99.90
58447;DHT22;44240;51.840;7.258;2022-11-20T11:57:47;3.20;99.90
58447;DHT22;44240;51.840;7.258;2022-11-20T12:00:17;3.40;99.90
58447;DHT22;44240;51.840;7.258;2022-11-20T12:05:59;3.50;99.90
58447;DHT22;44240;51.840;7.258;2022-11-20T12:08:31;3.60;99.90
58447;DHT22;44240;51.840;7.258;2022-11-20T12:11:16;3.60;99.90
58447;DHT22;44240;51.840;7.258;2022-11-20T12:14:01;3.70;99.90
58447;DHT22;44240;51.840;7.258;2022-11-20T12:16:34;3.80;99.90
58447;DHT22;44240;51.840;7.258;2022-11-20T12:19:01;3.80;99.90
58447;DHT22;44240;51.840;7.258;2022-11-20T12:47:48;4.30;99.90
58447;DHT22;44240;51.840;7.258;2022-11-20T12:50:50;4.30;99.90
58447;DHT22;44240;51.840;7.258;2022-11-20T12:53:28;4.40;99.90
58447;DHT22;44240;51.840;7.258;2022-11-20T13:02:17;4.60;99.90
58447;DHT22;44240;51.840;7.258;2022-11-20T13:05:15;4.60;99.90
58447;DHT22;44240;51.840;7.258;2022-11-20T13:07:43;4.70;99.90
58447;DHT22;44240;51.840;7.258;2022-11-20T13:10:34;4.60;99.90
58447;DHT22;44240;51.840;7.258;2022-11-20T13:13:13;4.60;99.90
58447;DHT22;44240;51.840;7.258;2022-11-20T13:15:48;4.60;99.90
58447;DHT22;44240;51.840;7.258;2022-11-20T13:18:16;4.60;99.90
58447;DHT22;44240;51.840;7.258;2022-11-20T13:20:44;4.60;99.90
58447;DHT22;44240;51.840;7.258;2022-11-20T13:23:10;4.60;99.90
58447;DHT22;44240;51.840;7.258;2022-11-20T13:25:37;4.60;99.90
58447;DHT22;44240;51.840;7.258;2022-11-20T13:28:26;4.60;99.90
58447;DHT22;44240;51.840;7.258;2022-11-20T13:30:52;4.70;99.90
58447;DHT22;44240;51.840;7.258;2022-11-20T13:33:31;4.70;99.90
58447;DHT22;44240;51.840;7.258;2022-11-20T13:36:02;4.70;99.90
58447;DHT22;44240;51.840;7.258;2022-11-20T13:38:28;4.60;99.90
58447;DHT22;44240;51.840;7.258;2022-11-20T13:40:57;4.70;99.90
58447;DHT22;44240;51.840;7.258;2022-11-20T13:46:07;4.70;99.90
58447;DHT22;44240;51.840;7.258;2022-11-20T13:48:39;4.70;99.90
58447;DHT22;44240;51.840;7.258;2022-11-20T13:53:55;4.70;99.90
58447;DHT22;44240;51.840;7.258;2022-11-20T13:56:34;4.70;99.90
58447;DHT22;44240;51.840;7.258;2022-11-20T13:59:09;4.70;99.90
58447;DHT22;44240;51.840;7.258;2022-11-20T14:01:38;4.70;99.90
58447;DHT22;44240;51.840;7.258;2022-11-20T14:04:08;4.70;99.90
58447;DHT22;44240;51.840;7.258;2022-11-20T14:06:42;4.70;99.90
58447;DHT22;44240;51.840;7.258;2022-11-20T14:09:13;4.70;99.90
58447;DHT22;44240;51.840;7.258;2022-11-20T14:11:49;4.70;99.90
58447;DHT22;44240;51.840;7.258;2022-11-20T14:14:29;4.70;99.90
58447;DHT22;44240;51.840;7.258;2022-11-20T14:17:06;4.70;99.90
58447;DHT22;44240;51.840;7.258;2022-11-20T14:19:33;4.60;99.90
58447;DHT22;44240;51.840;7.258;2022-11-20T14:24:44;4.70;99.90
58447;DHT22;44240;51.840;7.258;2022-11-20T14:27:15;4.70;99.90
58447;DHT22;44240;51.840;7.258;2022-11-20T14:29:42;4.70;99.90
58447;DHT22;44240;51.840;7.258;2022-11-20T14:32:09;4.70;99.90
58447;DHT22;44240;51.840;7.258;2022-11-20T14:34:40;4.70;99.90
58447;DHT22;44240;51.840;7.258;2022-11-20T14:37:11;4.70;99.90
58447;DHT22;44240;51.840;7.258;2022-11-20T14:39:41;4.70;99.90
58447;DHT22;44240;51.840;7.258;2022-11-20T14:42:27;4.70;99.90
58447;DHT22;44240;51.840;7.258;2022-11-20T14:44:56;4.70;99.90
58447;DHT22;44240;51.840;7.258;2022-11-20T14:47:29;4.70;99.90
58447;DHT22;44240;51.840;7.258;2022-11-20T14:49:57;4.60;99.90
58447;DHT22;44240;51.840;7.258;2022-11-20T14:52:25;4.70;99.90
